sensor_id;sensor_type;location;lat;lon;timestamp;P1;durP1;ratioP1;P2;durP2;ratioP2
9166;SDS011;4618;48.818;9.088;2022-07-01T00:01:43;0.20;;;0.20;;
9166;SDS011;4618;48.818;9.088;2022-07-01T00:04:09;0.10;;;0.10;;
9166;SDS011;4618;48.818;9.088;2022-07-01T00:06:35;0.40;;;0.20;;
9166;SDS011;4618;48.818;9.088;2022-07-01T00:09:02;0.20;;;0.20;;
9166;SDS011;4618;48.818;9.088;2022-07-01T00:11:29;0.33;;;0.20;;
9166;SDS011;4618;48.818;9.088;2022-07-01T00:13:56;0.40;;;0.33;;
9166;SDS011;4618;48.818;9.088;2022-07-01T00:16:21;0.83;;;0.10;;
9166;SDS011;4618;48.818;9.088;2022-07-01T00:18:47;0.30;;;0.23;;
9166;SDS011;4618;48.818;9.088;2022-07-01T00:21:12;0.20;;;0.20;;
9166;SDS011;4618;48.818;9.088;2022-07-01T00:23:39;0.30;;;0.20;;
9166;SDS011;4618;48.818;9.088;2022-07-01T00:26:05;0.20;;;0.20;;
9166;SDS011;4618;48.818;9.088;2022-07-01T00:28:31;0.10;;;0.10;;
9166;SDS011;4618;48.818;9.088;2022-07-01T00:30:56;0.20;;;0.20;;
9166;SDS011;4618;48.818;9.088;2022-07-01T00:33:22;0.60;;;0.53;;
9166;SDS011;4618;48.818;9.088;2022-07-01T00:35:47;0.40;;;0.30;;
9166;SDS011;4618;48.818;9.088;2022-07-01T00:38:13;0.20;;;0.20;;
9166;SDS011;4618;48.818;9.088;2022-07-01T00:40:38;1.33;;;0.33;;
9166;SDS011;4618;48.818;9.088;2022-07-01T00:43:04;0.87;;;0.40;;
9166;SDS011;4618;48.818;9.088;2022-07-01T00:45:30;0.20;;;0.17;;
9166;SDS011;4618;48.818;9.088;2022-07-01T00:47:55;0.20;;;0.20;;
9166;SDS011;4618;48.818;9.088;2022-07-01T00:50:22;0.40;;;0.30;;
9166;SDS011;4618;48.818;9.088;2022-07-01T00:52:48;1.17;;;0.40;;
9166;SDS011;4618;48.818;9.088;2022-07-01T00:55:14;0.40;;;0.40;;
9166;SDS011;4618;48.818;9.088;2022-07-01T00:57:41;0.53;;;0.20;;
9166;SDS011;4618;48.818;9.088;2022-07-01T01:00:09;1.00;;;0.27;;
9166;SDS011;4618;48.818;9.088;2022-07-01T01:02:37;0.70;;;0.40;;
9166;SDS011;4618;48.818;9.088;2022-07-01T01:05:03;0.57;;;0.20;;
9166;SDS011;4618;48.818;9.088;2022-07-01T01:07:30;0.40;;;0.20;;
9166;SDS011;4618;48.818;9.088;2022-07-01T01:09:57;0.20;;;0.20;;
9166;SDS011;4618;48.818;9.088;2022-07-01T01:12:27;0.10;;;0.10;;
9166;SDS011;4618;48.818;9.088;2022-07-01T01:14:53;1.37;;;0.23;;
9166;SDS011;4618;48.818;9.088;2022-07-01T01:17:19;0.20;;;0.20;;
9166;SDS011;4618;48.818;9.088;2022-07-01T01:19:47;6.93;;;0.40;;
9166;SDS011;4618;48.818;9.088;2022-07-01T01:22:14;0.10;;;0.10;;
9166;SDS011;4618;48.818;9.088;2022-07-01T01:24:41;0.30;;;0.30;;
9166;SDS011;4618;48.818;9.088;2022-07-01T01:27:08;0.80;;;0.30;;
9166;SDS011;4618;48.818;9.088;2022-07-01T01:29:34;0.33;;;0.30;;
9166;SDS011;4618;48.818;9.088;2022-07-01T01:32:01;0.37;;;0.23;;
9166;SDS011;4618;48.818;9.088;2022-07-01T01:34:31;0.20;;;0.20;;
9166;SDS011;4618;48.818;9.088;2022-07-01T01:36:58;0.30;;;0.23;;
9166;SDS011;4618;48.818;9.088;2022-07-01T01:39:24;0.30;;;0.30;;
9166;SDS011;4618;48.818;9.088;2022-07-01T01:41:50;0.23;;;0.23;;
9166;SDS011;4618;48.818;9.088;2022-07-01T01:44:15;0.30;;;0.17;;
9166;SDS011;4618;48.818;9.088;2022-07-01T01:46:41;0.37;;;0.30;;
9166;SDS011;4618;48.818;9.088;2022-07-01T01:49:07;0.10;;;0.10;;
9166;SDS011;4618;48.818;9.088;2022-07-01T01:51:33;0.50;;;0.30;;
9166;SDS011;4618;48.818;9.088;2022-07-01T01:53:59;0.97;;;0.30;;
9166;SDS011;4618;48.818;9.088;2022-07-01T01:56:25;0.20;;;0.20;;
9166;SDS011;4618;48.818;9.088;2022-07-01T01:58:51;0.20;;;0.20;;
9166;SDS011;4618;48.818;9.088;2022-07-01T02:01:17;0.30;;;0.30;;
9166;SDS011;4618;48.818;9.088;2022-07-01T02:03:44;0.83;;;0.30;;
9166;SDS011;4618;48.818;9.088;2022-07-01T02:06:12;0.37;;;0.27;;
9166;SDS011;4618;48.818;9.088;2022-07-01T02:08:39;1.37;;;0.30;;
9166;SDS011;4618;48.818;9.088;2022-07-01T02:11:06;0.23;;;0.23;;
9166;SDS011;4618;48.818;9.088;2022-07-01T02:13:32;0.40;;;0.30;;
9166;SDS011;4618;48.818;9.088;2022-07-01T02:15:58;0.20;;;0.20;;
9166;SDS011;4618;48.818;9.088;2022-07-01T02:18:24;0.23;;;0.23;;
9166;SDS011;4618;48.818;9.088;2022-07-01T02:20:50;2.17;;;0.20;;
9166;SDS011;4618;48.818;9.088;2022-07-01T02:23:16;0.40;;;0.40;;
9166;SDS011;4618;48.818;9.088;2022-07-01T02:25:42;0.30;;;0.30;;
9166;SDS011;4618;48.818;9.088;2022-07-01T02:28:08;1.23;;;0.30;;
9166;SDS011;4618;48.818;9.088;2022-07-01T02:30:34;0.30;;;0.30;;
9166;SDS011;4618;48.818;9.088;2022-07-01T02:33:01;0.60;;;0.43;;
9166;SDS011;4618;48.818;9.088;2022-07-01T02:35:28;0.30;;;0.30;;
9166;SDS011;4618;48.818;9.088;2022-07-01T02:37:54;0.37;;;0.37;;
9166;SDS011;4618;48.818;9.088;2022-07-01T02:40:19;0.37;;;0.30;;
9166;SDS011;4618;48.818;9.088;2022-07-01T02:42:45;0.50;;;0.40;;
9166;SDS011;4618;48.818;9.088;2022-07-01T02:45:11;0.50;;;0.40;;
9166;SDS011;4618;48.818;9.088;2022-07-01T02:47:38;0.30;;;0.30;;
9166;SDS011;4618;48.818;9.088;2022-07-01T02:50:06;0.50;;;0.50;;
9166;SDS011;4618;48.818;9.088;2022-07-01T02:52:33;0.47;;;0.40;;
9166;SDS011;4618;48.818;9.088;2022-07-01T02:55:00;0.53;;;0.40;;
9166;SDS011;4618;48.818;9.088;2022-07-01T02:57:26;1.60;;;0.50;;
9166;SDS011;4618;48.818;9.088;2022-07-01T02:59:52;0.50;;;0.40;;
9166;SDS011;4618;48.818;9.088;2022-07-01T03:02:19;1.53;;;0.70;;
9166;SDS011;4618;48.818;9.088;2022-07-01T03:04:45;0.80;;;0.50;;
9166;SDS011;4618;48.818;9.088;2022-07-01T03:07:12;0.73;;;0.60;;
9166;SDS011;4618;48.818;9.088;2022-07-01T03:09:38;0.67;;;0.50;;
9166;SDS011;4618;48.818;9.088;2022-07-01T03:12:05;0.50;;;0.43;;
9166;SDS011;4618;48.818;9.088;2022-07-01T03:14:50;0.47;;;0.33;;
9166;SDS011;4618;48.818;9.088;2022-07-01T03:17:23;0.50;;;0.50;;
9166;SDS011;4618;48.818;9.088;2022-07-01T03:19:49;0.37;;;0.37;;
9166;SDS011;4618;48.818;9.088;2022-07-01T03:22:16;0.50;;;0.30;;
9166;SDS011;4618;48.818;9.088;2022-07-01T03:24:42;0.50;;;0.20;;
9166;SDS011;4618;48.818;9.088;2022-07-01T03:27:08;0.20;;;0.20;;
9166;SDS011;4618;48.818;9.088;2022-07-01T03:29:34;0.77;;;0.40;;
9166;SDS011;4618;48.818;9.088;2022-07-01T03:32:00;0.40;;;0.40;;
9166;SDS011;4618;48.818;9.088;2022-07-01T03:34:26;0.40;;;0.40;;
9166;SDS011;4618;48.818;9.088;2022-07-01T03:36:51;0.40;;;0.20;;
9166;SDS011;4618;48.818;9.088;2022-07-01T03:39:17;0.40;;;0.30;;
9166;SDS011;4618;48.818;9.088;2022-07-01T03:41:43;0.30;;;0.30;;
9166;SDS011;4618;48.818;9.088;2022-07-01T03:44:09;0.60;;;0.20;;
9166;SDS011;4618;48.818;9.088;2022-07-01T03:46:34;0.33;;;0.33;;
9166;SDS011;4618;48.818;9.088;2022-07-01T03:49:01;0.40;;;0.40;;
9166;SDS011;4618;48.818;9.088;2022-07-01T03:51:27;0.40;;;0.30;;
9166;SDS011;4618;48.818;9.088;2022-07-01T03:53:53;0.30;;;0.30;;
9166;SDS011;4618;48.818;9.088;2022-07-01T03:56:37;0.43;;;0.40;;
9166;SDS011;4618;48.818;9.088;2022-07-01T03:59:03;0.40;;;0.30;;
9166;SDS011;4618;48.818;9.088;2022-07-01T04:01:28;0.40;;;0.40;;
9166;SDS011;4618;48.818;9.088;2022-07-01T04:03:54;0.63;;;0.53;;
9166;SDS011;4618;48.818;9.088;2022-07-01T04:06:20;0.67;;;0.40;;
9166;SDS011;4618;48.818;9.088;2022-07-01T04:08:46;0.43;;;0.43;;
9166;SDS011;4618;48.818;9.088;2022-07-01T04:11:12;0.37;;;0.37;;
9166;SDS011;4618;48.818;9.088;2022-07-01T04:13:38;0.40;;;0.30;;
9166;SDS011;4618;48.818;9.088;2022-07-01T04:16:04;2.93;;;0.50;;
9166;SDS011;4618;48.818;9.088;2022-07-01T04:18:30;0.30;;;0.30;;
9166;SDS011;4618;48.818;9.088;2022-07-01T04:20:57;1.03;;;0.40;;
9166;SDS011;4618;48.818;9.088;2022-07-01T04:23:42;0.60;;;0.50;;
9166;SDS011;4618;48.818;9.088;2022-07-01T04:26:07;0.60;;;0.60;;
9166;SDS011;4618;48.818;9.088;2022-07-01T04:28:33;0.80;;;0.43;;
9166;SDS011;4618;48.818;9.088;2022-07-01T04:30:59;0.40;;;0.40;;
9166;SDS011;4618;48.818;9.088;2022-07-01T04:33:24;0.30;;;0.30;;
9166;SDS011;4618;48.818;9.088;2022-07-01T04:35:50;0.77;;;0.50;;
9166;SDS011;4618;48.818;9.088;2022-07-01T04:38:16;0.40;;;0.40;;
9166;SDS011;4618;48.818;9.088;2022-07-01T04:40:42;0.40;;;0.40;;
9166;SDS011;4618;48.818;9.088;2022-07-01T04:43:27;0.33;;;0.33;;
9166;SDS011;4618;48.818;9.088;2022-07-01T04:45:53;0.40;;;0.40;;
9166;SDS011;4618;48.818;9.088;2022-07-01T04:48:20;1.43;;;0.30;;
9166;SDS011;4618;48.818;9.088;2022-07-01T04:50:46;0.67;;;0.47;;
9166;SDS011;4618;48.818;9.088;2022-07-01T04:53:12;0.40;;;0.40;;
9166;SDS011;4618;48.818;9.088;2022-07-01T04:55:38;7.33;;;1.00;;
9166;SDS011;4618;48.818;9.088;2022-07-01T04:58:04;2.93;;;1.07;;
9166;SDS011;4618;48.818;9.088;2022-07-01T05:00:29;5.73;;;1.60;;
9166;SDS011;4618;48.818;9.088;2022-07-01T05:02:55;2.43;;;1.13;;
9166;SDS011;4618;48.818;9.088;2022-07-01T05:05:21;4.30;;;1.03;;
9166;SDS011;4618;48.818;9.088;2022-07-01T05:07:46;1.50;;;0.67;;
9166;SDS011;4618;48.818;9.088;2022-07-01T05:10:12;4.33;;;1.63;;
9166;SDS011;4618;48.818;9.088;2022-07-01T05:12:38;7.93;;;1.77;;
9166;SDS011;4618;48.818;9.088;2022-07-01T05:15:03;3.60;;;1.03;;
9166;SDS011;4618;48.818;9.088;2022-07-01T05:17:30;8.27;;;2.40;;
9166;SDS011;4618;48.818;9.088;2022-07-01T05:20:14;13.07;;;3.67;;
9166;SDS011;4618;48.818;9.088;2022-07-01T05:22:58;7.37;;;2.63;;
9166;SDS011;4618;48.818;9.088;2022-07-01T05:25:24;7.50;;;2.50;;
9166;SDS011;4618;48.818;9.088;2022-07-01T05:27:49;4.40;;;2.53;;
9166;SDS011;4618;48.818;9.088;2022-07-01T05:30:15;16.27;;;3.60;;
9166;SDS011;4618;48.818;9.088;2022-07-01T05:32:40;5.50;;;1.10;;
9166;SDS011;4618;48.818;9.088;2022-07-01T05:35:06;1.27;;;1.17;;
9166;SDS011;4618;48.818;9.088;2022-07-01T05:37:32;1.23;;;0.90;;
9166;SDS011;4618;48.818;9.088;2022-07-01T05:39:58;0.93;;;0.80;;
9166;SDS011;4618;48.818;9.088;2022-07-01T05:42:23;1.27;;;1.17;;
9166;SDS011;4618;48.818;9.088;2022-07-01T05:44:49;1.10;;;1.00;;
9166;SDS011;4618;48.818;9.088;2022-07-01T05:47:14;1.10;;;1.00;;
9166;SDS011;4618;48.818;9.088;2022-07-01T05:49:40;1.10;;;0.80;;
9166;SDS011;4618;48.818;9.088;2022-07-01T05:52:05;1.07;;;1.07;;
9166;SDS011;4618;48.818;9.088;2022-07-01T05:54:31;1.70;;;0.93;;
9166;SDS011;4618;48.818;9.088;2022-07-01T05:56:57;0.87;;;0.80;;
9166;SDS011;4618;48.818;9.088;2022-07-01T05:59:22;1.10;;;1.00;;
9166;SDS011;4618;48.818;9.088;2022-07-01T06:01:48;0.77;;;0.77;;
9166;SDS011;4618;48.818;9.088;2022-07-01T06:04:15;0.90;;;0.80;;
9166;SDS011;4618;48.818;9.088;2022-07-01T06:06:41;1.17;;;1.10;;
9166;SDS011;4618;48.818;9.088;2022-07-01T06:09:07;2.20;;;0.80;;
9166;SDS011;4618;48.818;9.088;2022-07-01T06:11:33;0.90;;;0.90;;
9166;SDS011;4618;48.818;9.088;2022-07-01T06:13:58;1.00;;;1.00;;
9166;SDS011;4618;48.818;9.088;2022-07-01T06:16:24;0.70;;;0.70;;
9166;SDS011;4618;48.818;9.088;2022-07-01T06:18:50;1.13;;;1.00;;
9166;SDS011;4618;48.818;9.088;2022-07-01T06:21:15;1.33;;;1.23;;
9166;SDS011;4618;48.818;9.088;2022-07-01T06:23:42;1.10;;;0.70;;
9166;SDS011;4618;48.818;9.088;2022-07-01T06:26:07;1.20;;;1.10;;
9166;SDS011;4618;48.818;9.088;2022-07-01T06:28:33;2.97;;;0.80;;
9166;SDS011;4618;48.818;9.088;2022-07-01T06:30:58;1.23;;;1.10;;
9166;SDS011;4618;48.818;9.088;2022-07-01T06:33:24;1.17;;;1.00;;
9166;SDS011;4618;48.818;9.088;2022-07-01T06:35:52;1.43;;;1.10;;
9166;SDS011;4618;48.818;9.088;2022-07-01T06:38:17;0.97;;;0.93;;
9166;SDS011;4618;48.818;9.088;2022-07-01T06:40:43;0.80;;;0.80;;
9166;SDS011;4618;48.818;9.088;2022-07-01T06:43:41;0.70;;;0.70;;
9166;SDS011;4618;48.818;9.088;2022-07-01T06:46:08;1.20;;;1.10;;
9166;SDS011;4618;48.818;9.088;2022-07-01T06:48:34;1.10;;;1.00;;
9166;SDS011;4618;48.818;9.088;2022-07-01T06:51:00;1.10;;;0.70;;
9166;SDS011;4618;48.818;9.088;2022-07-01T06:53:26;1.57;;;0.93;;
9166;SDS011;4618;48.818;9.088;2022-07-01T06:55:52;0.90;;;0.80;;
9166;SDS011;4618;48.818;9.088;2022-07-01T06:58:18;1.40;;;1.00;;
9166;SDS011;4618;48.818;9.088;2022-07-01T07:00:43;1.20;;;1.10;;
9166;SDS011;4618;48.818;9.088;2022-07-01T07:03:09;1.17;;;0.90;;
9166;SDS011;4618;48.818;9.088;2022-07-01T07:05:34;1.60;;;1.00;;
9166;SDS011;4618;48.818;9.088;2022-07-01T07:08:00;1.67;;;1.00;;
9166;SDS011;4618;48.818;9.088;2022-07-01T07:10:25;2.57;;;1.10;;
9166;SDS011;4618;48.818;9.088;2022-07-01T07:12:51;1.07;;;0.97;;
9166;SDS011;4618;48.818;9.088;2022-07-01T07:15:16;0.63;;;0.63;;
9166;SDS011;4618;48.818;9.088;2022-07-01T07:17:43;0.97;;;0.90;;
9166;SDS011;4618;48.818;9.088;2022-07-01T07:20:09;2.40;;;0.90;;
9166;SDS011;4618;48.818;9.088;2022-07-01T07:22:34;1.17;;;0.93;;
9166;SDS011;4618;48.818;9.088;2022-07-01T07:25:01;0.50;;;0.50;;
9166;SDS011;4618;48.818;9.088;2022-07-01T07:27:27;0.80;;;0.80;;
9166;SDS011;4618;48.818;9.088;2022-07-01T07:29:53;0.80;;;0.70;;
9166;SDS011;4618;48.818;9.088;2022-07-01T07:32:19;0.70;;;0.70;;
9166;SDS011;4618;48.818;9.088;2022-07-01T07:34:44;0.97;;;0.97;;
9166;SDS011;4618;48.818;9.088;2022-07-01T07:37:10;0.77;;;0.77;;
9166;SDS011;4618;48.818;9.088;2022-07-01T07:39:36;1.43;;;0.90;;
9166;SDS011;4618;48.818;9.088;2022-07-01T07:42:02;0.70;;;0.67;;
9166;SDS011;4618;48.818;9.088;2022-07-01T07:44:29;0.80;;;0.80;;
9166;SDS011;4618;48.818;9.088;2022-07-01T07:46:55;1.00;;;0.90;;
9166;SDS011;4618;48.818;9.088;2022-07-01T07:49:22;1.33;;;1.00;;
9166;SDS011;4618;48.818;9.088;2022-07-01T07:51:48;0.90;;;0.90;;
9166;SDS011;4618;48.818;9.088;2022-07-01T07:54:14;0.80;;;0.80;;
9166;SDS011;4618;48.818;9.088;2022-07-01T07:56:40;1.33;;;0.90;;
9166;SDS011;4618;48.818;9.088;2022-07-01T07:59:05;1.67;;;1.03;;
9166;SDS011;4618;48.818;9.088;2022-07-01T08:01:31;1.10;;;0.77;;
9166;SDS011;4618;48.818;9.088;2022-07-01T08:03:56;1.30;;;1.03;;
9166;SDS011;4618;48.818;9.088;2022-07-01T08:06:22;1.53;;;0.90;;
9166;SDS011;4618;48.818;9.088;2022-07-01T08:08:47;0.53;;;0.53;;
9166;SDS011;4618;48.818;9.088;2022-07-01T08:11:13;0.60;;;0.60;;
9166;SDS011;4618;48.818;9.088;2022-07-01T08:13:39;0.90;;;0.90;;
9166;SDS011;4618;48.818;9.088;2022-07-01T08:16:04;0.73;;;0.70;;
9166;SDS011;4618;48.818;9.088;2022-07-01T08:18:30;0.80;;;0.77;;
9166;SDS011;4618;48.818;9.088;2022-07-01T08:20:55;0.80;;;0.70;;
9166;SDS011;4618;48.818;9.088;2022-07-01T08:23:21;2.03;;;0.83;;
9166;SDS011;4618;48.818;9.088;2022-07-01T08:25:47;1.20;;;1.00;;
9166;SDS011;4618;48.818;9.088;2022-07-01T08:28:14;0.93;;;0.90;;
9166;SDS011;4618;48.818;9.088;2022-07-01T08:30:39;1.20;;;1.10;;
9166;SDS011;4618;48.818;9.088;2022-07-01T08:33:05;1.10;;;1.00;;
9166;SDS011;4618;48.818;9.088;2022-07-01T08:35:31;0.77;;;0.77;;
9166;SDS011;4618;48.818;9.088;2022-07-01T08:37:56;1.17;;;1.07;;
9166;SDS011;4618;48.818;9.088;2022-07-01T08:40:26;1.47;;;1.00;;
9166;SDS011;4618;48.818;9.088;2022-07-01T08:42:56;1.03;;;0.93;;
9166;SDS011;4618;48.818;9.088;2022-07-01T08:45:24;1.80;;;1.00;;
9166;SDS011;4618;48.818;9.088;2022-07-01T08:47:51;1.33;;;1.00;;
9166;SDS011;4618;48.818;9.088;2022-07-01T08:50:17;0.60;;;0.60;;
9166;SDS011;4618;48.818;9.088;2022-07-01T08:52:43;0.90;;;0.60;;
9166;SDS011;4618;48.818;9.088;2022-07-01T08:55:08;1.53;;;0.90;;
9166;SDS011;4618;48.818;9.088;2022-07-01T08:57:34;0.60;;;0.60;;
9166;SDS011;4618;48.818;9.088;2022-07-01T09:00:09;2.37;;;0.80;;
9166;SDS011;4618;48.818;9.088;2022-07-01T09:02:51;1.00;;;0.90;;
9166;SDS011;4618;48.818;9.088;2022-07-01T09:05:24;1.27;;;0.90;;
9166;SDS011;4618;48.818;9.088;2022-07-01T09:08:01;0.70;;;0.70;;
9166;SDS011;4618;48.818;9.088;2022-07-01T09:10:29;0.87;;;0.50;;
9166;SDS011;4618;48.818;9.088;2022-07-01T09:13:02;0.83;;;0.60;;
9166;SDS011;4618;48.818;9.088;2022-07-01T09:15:32;1.23;;;0.80;;
9166;SDS011;4618;48.818;9.088;2022-07-01T09:18:32;0.70;;;0.57;;
9166;SDS011;4618;48.818;9.088;2022-07-01T09:20:50;0.83;;;0.50;;
9166;SDS011;4618;48.818;9.088;2022-07-01T09:23:19;1.53;;;0.70;;
9166;SDS011;4618;48.818;9.088;2022-07-01T09:25:46;0.73;;;0.60;;
9166;SDS011;4618;48.818;9.088;2022-07-01T09:28:13;0.70;;;0.70;;
9166;SDS011;4618;48.818;9.088;2022-07-01T09:30:45;0.53;;;0.50;;
9166;SDS011;4618;48.818;9.088;2022-07-01T09:33:15;0.60;;;0.60;;
9166;SDS011;4618;48.818;9.088;2022-07-01T09:35:42;1.40;;;0.70;;
9166;SDS011;4618;48.818;9.088;2022-07-01T09:38:12;0.60;;;0.60;;
9166;SDS011;4618;48.818;9.088;2022-07-01T09:43:17;0.60;;;0.60;;
9166;SDS011;4618;48.818;9.088;2022-07-01T09:48:20;0.80;;;0.60;;
9166;SDS011;4618;48.818;9.088;2022-07-01T09:50:46;0.50;;;0.50;;
9166;SDS011;4618;48.818;9.088;2022-07-01T09:53:12;1.03;;;0.70;;
9166;SDS011;4618;48.818;9.088;2022-07-01T09:55:38;0.60;;;0.50;;
9166;SDS011;4618;48.818;9.088;2022-07-01T09:58:04;0.70;;;0.60;;
9166;SDS011;4618;48.818;9.088;2022-07-01T10:00:31;0.80;;;0.80;;
9166;SDS011;4618;48.818;9.088;2022-07-01T10:02:57;0.60;;;0.60;;
9166;SDS011;4618;48.818;9.088;2022-07-01T10:05:26;0.43;;;0.43;;
9166;SDS011;4618;48.818;9.088;2022-07-01T10:13:23;1.03;;;0.30;;
9166;SDS011;4618;48.818;9.088;2022-07-01T10:15:52;0.43;;;0.43;;
9166;SDS011;4618;48.818;9.088;2022-07-01T10:18:22;0.60;;;0.40;;
9166;SDS011;4618;48.818;9.088;2022-07-01T10:20:49;0.30;;;0.30;;
9166;SDS011;4618;48.818;9.088;2022-07-01T10:23:15;1.13;;;0.30;;
9166;SDS011;4618;48.818;9.088;2022-07-01T10:25:47;0.20;;;0.20;;
9166;SDS011;4618;48.818;9.088;2022-07-01T10:36:48;0.30;;;0.30;;
9166;SDS011;4618;48.818;9.088;2022-07-01T10:41:41;0.47;;;0.20;;
9166;SDS011;4618;48.818;9.088;2022-07-01T10:44:08;0.60;;;0.30;;
9166;SDS011;4618;48.818;9.088;2022-07-01T10:46:41;0.20;;;0.20;;
9166;SDS011;4618;48.818;9.088;2022-07-01T10:51:50;0.20;;;0.20;;
9166;SDS011;4618;48.818;9.088;2022-07-01T11:02:12;0.33;;;0.33;;
9166;SDS011;4618;48.818;9.088;2022-07-01T11:04:40;0.30;;;0.30;;
9166;SDS011;4618;48.818;9.088;2022-07-01T11:07:06;3.03;;;0.60;;
9166;SDS011;4618;48.818;9.088;2022-07-01T11:09:33;1.33;;;0.50;;
9166;SDS011;4618;48.818;9.088;2022-07-01T11:11:59;0.30;;;0.30;;
9166;SDS011;4618;48.818;9.088;2022-07-01T11:14:25;0.27;;;0.27;;
9166;SDS011;4618;48.818;9.088;2022-07-01T11:16:51;0.10;;;0.10;;
9166;SDS011;4618;48.818;9.088;2022-07-01T11:19:18;0.40;;;0.40;;
9166;SDS011;4618;48.818;9.088;2022-07-01T11:21:51;0.40;;;0.30;;
9166;SDS011;4618;48.818;9.088;2022-07-01T11:24:20;0.23;;;0.23;;
9166;SDS011;4618;48.818;9.088;2022-07-01T11:26:47;0.50;;;0.40;;
9166;SDS011;4618;48.818;9.088;2022-07-01T11:29:14;0.43;;;0.32;;
9166;SDS011;4618;48.818;9.088;2022-07-01T11:31:48;0.20;;;0.20;;
9166;SDS011;4618;48.818;9.088;2022-07-01T11:34:15;0.47;;;0.30;;
9166;SDS011;4618;48.818;9.088;2022-07-01T11:36:45;0.20;;;0.20;;
9166;SDS011;4618;48.818;9.088;2022-07-01T11:39:31;0.40;;;0.40;;
9166;SDS011;4618;48.818;9.088;2022-07-01T11:42:00;0.52;;;0.22;;
9166;SDS011;4618;48.818;9.088;2022-07-01T11:47:02;0.30;;;0.30;;
9166;SDS011;4618;48.818;9.088;2022-07-01T11:49:29;0.20;;;0.20;;
9166;SDS011;4618;48.818;9.088;2022-07-01T11:52:03;0.70;;;0.30;;
9166;SDS011;4618;48.818;9.088;2022-07-01T11:54:30;0.30;;;0.30;;
9166;SDS011;4618;48.818;9.088;2022-07-01T11:57:07;0.22;;;0.20;;
9166;SDS011;4618;48.818;9.088;2022-07-01T11:59:37;0.30;;;0.30;;
9166;SDS011;4618;48.818;9.088;2022-07-01T12:02:04;0.25;;;0.25;;
9166;SDS011;4618;48.818;9.088;2022-07-01T12:04:30;0.33;;;0.33;;
9166;SDS011;4618;48.818;9.088;2022-07-01T12:06:55;0.93;;;0.40;;
9166;SDS011;4618;48.818;9.088;2022-07-01T12:09:23;0.60;;;0.43;;
9166;SDS011;4618;48.818;9.088;2022-07-01T12:11:49;0.67;;;0.40;;
9166;SDS011;4618;48.818;9.088;2022-07-01T12:14:20;0.40;;;0.40;;
9166;SDS011;4618;48.818;9.088;2022-07-01T12:16:46;0.30;;;0.30;;
9166;SDS011;4618;48.818;9.088;2022-07-01T12:19:12;0.90;;;0.32;;
9166;SDS011;4618;48.818;9.088;2022-07-01T12:21:53;0.82;;;0.30;;
9166;SDS011;4618;48.818;9.088;2022-07-01T12:24:23;0.20;;;0.20;;
9166;SDS011;4618;48.818;9.088;2022-07-01T12:29:23;0.60;;;0.20;;
9166;SDS011;4618;48.818;9.088;2022-07-01T12:31:54;0.30;;;0.30;;
9166;SDS011;4618;48.818;9.088;2022-07-01T12:34:21;0.52;;;0.40;;
9166;SDS011;4618;48.818;9.088;2022-07-01T12:36:50;0.30;;;0.30;;
9166;SDS011;4618;48.818;9.088;2022-07-01T12:39:16;1.55;;;0.20;;
9166;SDS011;4618;48.818;9.088;2022-07-01T12:41:48;0.47;;;0.20;;
9166;SDS011;4618;48.818;9.088;2022-07-01T12:44:22;0.30;;;0.30;;
9166;SDS011;4618;48.818;9.088;2022-07-01T12:46:49;0.50;;;0.50;;
9166;SDS011;4618;48.818;9.088;2022-07-01T12:49:18;0.60;;;0.30;;
9166;SDS011;4618;48.818;9.088;2022-07-01T12:51:48;0.35;;;0.32;;
9166;SDS011;4618;48.818;9.088;2022-07-01T12:54:33;0.90;;;0.45;;
9166;SDS011;4618;48.818;9.088;2022-07-01T12:57:01;0.40;;;0.40;;
9166;SDS011;4618;48.818;9.088;2022-07-01T12:59:27;0.50;;;0.50;;
9166;SDS011;4618;48.818;9.088;2022-07-01T13:01:53;0.60;;;0.40;;
9166;SDS011;4618;48.818;9.088;2022-07-01T13:04:26;0.60;;;0.35;;
9166;SDS011;4618;48.818;9.088;2022-07-01T13:06:53;0.40;;;0.40;;
9166;SDS011;4618;48.818;9.088;2022-07-01T13:09:19;0.88;;;0.50;;
9166;SDS011;4618;48.818;9.088;2022-07-01T13:11:44;0.40;;;0.40;;
9166;SDS011;4618;48.818;9.088;2022-07-01T13:14:10;0.82;;;0.40;;
9166;SDS011;4618;48.818;9.088;2022-07-01T13:16:35;1.02;;;0.43;;
9166;SDS011;4618;48.818;9.088;2022-07-01T13:19:01;0.55;;;0.45;;
9166;SDS011;4618;48.818;9.088;2022-07-01T13:21:27;0.40;;;0.40;;
9166;SDS011;4618;48.818;9.088;2022-07-01T13:23:54;0.40;;;0.40;;
9166;SDS011;4618;48.818;9.088;2022-07-01T13:26:20;0.43;;;0.38;;
9166;SDS011;4618;48.818;9.088;2022-07-01T13:28:45;0.30;;;0.30;;
9166;SDS011;4618;48.818;9.088;2022-07-01T13:31:11;0.95;;;0.43;;
9166;SDS011;4618;48.818;9.088;2022-07-01T13:33:37;0.30;;;0.30;;
9166;SDS011;4618;48.818;9.088;2022-07-01T13:36:03;1.67;;;0.65;;
9166;SDS011;4618;48.818;9.088;2022-07-01T13:38:29;0.73;;;0.30;;
9166;SDS011;4618;48.818;9.088;2022-07-01T13:40:55;0.68;;;0.35;;
9166;SDS011;4618;48.818;9.088;2022-07-01T13:43:20;1.42;;;0.50;;
9166;SDS011;4618;48.818;9.088;2022-07-01T13:45:46;0.40;;;0.40;;
9166;SDS011;4618;48.818;9.088;2022-07-01T13:48:12;0.50;;;0.40;;
9166;SDS011;4618;48.818;9.088;2022-07-01T13:50:37;0.30;;;0.30;;
9166;SDS011;4618;48.818;9.088;2022-07-01T13:53:03;0.30;;;0.30;;
9166;SDS011;4618;48.818;9.088;2022-07-01T13:55:29;0.40;;;0.40;;
9166;SDS011;4618;48.818;9.088;2022-07-01T13:57:54;0.38;;;0.38;;
9166;SDS011;4618;48.818;9.088;2022-07-01T14:00:20;0.30;;;0.30;;
9166;SDS011;4618;48.818;9.088;2022-07-01T14:02:45;0.40;;;0.40;;
9166;SDS011;4618;48.818;9.088;2022-07-01T14:05:11;0.40;;;0.40;;
9166;SDS011;4618;48.818;9.088;2022-07-01T14:07:37;0.40;;;0.40;;
9166;SDS011;4618;48.818;9.088;2022-07-01T14:10:03;3.50;;;0.30;;
9166;SDS011;4618;48.818;9.088;2022-07-01T14:12:29;1.65;;;0.30;;
9166;SDS011;4618;48.818;9.088;2022-07-01T14:14:58;0.30;;;0.30;;
9166;SDS011;4618;48.818;9.088;2022-07-01T14:17:24;0.30;;;0.30;;
9166;SDS011;4618;48.818;9.088;2022-07-01T14:19:50;0.40;;;0.40;;
9166;SDS011;4618;48.818;9.088;2022-07-01T14:22:16;0.55;;;0.30;;
9166;SDS011;4618;48.818;9.088;2022-07-01T14:24:41;0.43;;;0.43;;
9166;SDS011;4618;48.818;9.088;2022-07-01T14:27:07;0.43;;;0.43;;
9166;SDS011;4618;48.818;9.088;2022-07-01T14:29:33;0.43;;;0.40;;
9166;SDS011;4618;48.818;9.088;2022-07-01T14:31:58;0.30;;;0.30;;
9166;SDS011;4618;48.818;9.088;2022-07-01T14:34:25;0.75;;;0.60;;
9166;SDS011;4618;48.818;9.088;2022-07-01T14:36:50;0.60;;;0.40;;
9166;SDS011;4618;48.818;9.088;2022-07-01T14:39:16;1.00;;;0.40;;
9166;SDS011;4618;48.818;9.088;2022-07-01T14:41:42;0.50;;;0.50;;
9166;SDS011;4618;48.818;9.088;2022-07-01T14:44:07;0.70;;;0.50;;
9166;SDS011;4618;48.818;9.088;2022-07-01T14:46:33;0.50;;;0.50;;
9166;SDS011;4618;48.818;9.088;2022-07-01T14:48:58;1.00;;;0.38;;
9166;SDS011;4618;48.818;9.088;2022-07-01T14:51:24;0.50;;;0.40;;
9166;SDS011;4618;48.818;9.088;2022-07-01T14:53:50;0.30;;;0.30;;
9166;SDS011;4618;48.818;9.088;2022-07-01T14:56:16;0.38;;;0.38;;
9166;SDS011;4618;48.818;9.088;2022-07-01T14:58:42;0.87;;;0.50;;
9166;SDS011;4618;48.818;9.088;2022-07-01T15:01:08;0.40;;;0.40;;
9166;SDS011;4618;48.818;9.088;2022-07-01T15:03:35;0.93;;;0.70;;
9166;SDS011;4618;48.818;9.088;2022-07-01T15:06:01;1.15;;;0.40;;
9166;SDS011;4618;48.818;9.088;2022-07-01T15:08:28;0.57;;;0.38;;
9166;SDS011;4618;48.818;9.088;2022-07-01T15:10:53;0.40;;;0.40;;
9166;SDS011;4618;48.818;9.088;2022-07-01T15:13:28;0.20;;;0.20;;
9166;SDS011;4618;48.818;9.088;2022-07-01T15:16:00;0.50;;;0.30;;
9166;SDS011;4618;48.818;9.088;2022-07-01T15:18:26;0.30;;;0.25;;
9166;SDS011;4618;48.818;9.088;2022-07-01T15:20:51;0.40;;;0.40;;
9166;SDS011;4618;48.818;9.088;2022-07-01T15:23:17;0.40;;;0.40;;
9166;SDS011;4618;48.818;9.088;2022-07-01T15:25:43;0.57;;;0.40;;
9166;SDS011;4618;48.818;9.088;2022-07-01T15:28:08;0.75;;;0.40;;
9166;SDS011;4618;48.818;9.088;2022-07-01T15:30:34;0.40;;;0.20;;
9166;SDS011;4618;48.818;9.088;2022-07-01T15:32:59;0.30;;;0.30;;
9166;SDS011;4618;48.818;9.088;2022-07-01T15:35:25;0.70;;;0.30;;
9166;SDS011;4618;48.818;9.088;2022-07-01T15:37:50;0.52;;;0.22;;
9166;SDS011;4618;48.818;9.088;2022-07-01T15:40:16;1.00;;;0.47;;
9166;SDS011;4618;48.818;9.088;2022-07-01T15:42:42;0.20;;;0.20;;
9166;SDS011;4618;48.818;9.088;2022-07-01T15:45:07;0.75;;;0.38;;
9166;SDS011;4618;48.818;9.088;2022-07-01T15:47:33;0.55;;;0.50;;
9166;SDS011;4618;48.818;9.088;2022-07-01T15:50:18;0.45;;;0.40;;
9166;SDS011;4618;48.818;9.088;2022-07-01T15:52:45;0.68;;;0.45;;